sensor_id;sensor_type;location;lat;lon;timestamp;temperature;humidity
28520;DHT22;15732;48.534;20.382;2023-04-08T00:01:16;5.10;99.90
28520;DHT22;15732;48.534;20.382;2023-04-08T00:03:43;5.10;99.90
28520;DHT22;15732;48.534;20.382;2023-04-08T00:06:11;5.10;99.90
28520;DHT22;15732;48.534;20.382;2023-04-08T00:08:38;5.10;99.90
28520;DHT22;15732;48.534;20.382;2023-04-08T00:11:05;5.10;99.90
28520;DHT22;15732;48.534;20.382;2023-04-08T00:13:37;5.10;99.90
28520;DHT22;15732;48.534;20.382;2023-04-08T00:16:04;5.10;99.90
28520;DHT22;15732;48.534;20.382;2023-04-08T00:18:32;5.10;99.90
28520;DHT22;15732;48.534;20.382;2023-04-08T00:21:03;5.10;99.90
28520;DHT22;15732;48.534;20.382;2023-04-08T00:23:30;5.10;99.90
28520;DHT22;15732;48.534;20.382;2023-04-08T00:25:57;5.10;99.90
28520;DHT22;15732;48.534;20.382;2023-04-08T00:28:24;5.10;99.90
28520;DHT22;15732;48.534;20.382;2023-04-08T00:30:52;5.10;99.90
28520;DHT22;15732;48.534;20.382;2023-04-08T00:33:20;5.10;99.90
28520;DHT22;15732;48.534;20.382;2023-04-08T00:35:47;5.10;99.90
28520;DHT22;15732;48.534;20.382;2023-04-08T00:38:15;5.10;99.90
28520;DHT22;15732;48.534;20.382;2023-04-08T00:40:42;5.10;99.90
28520;DHT22;15732;48.534;20.382;2023-04-08T00:43:13;5.10;99.90
28520;DHT22;15732;48.534;20.382;2023-04-08T00:45:41;5.10;99.90
28520;DHT22;15732;48.534;20.382;2023-04-08T00:48:09;5.10;99.90
28520;DHT22;15732;48.534;20.382;2023-04-08T00:50:36;5.10;99.90
28520;DHT22;15732;48.534;20.382;2023-04-08T00:53:04;5.10;99.90
28520;DHT22;15732;48.534;20.382;2023-04-08T00:55:31;5.10;99.90
28520;DHT22;15732;48.534;20.382;2023-04-08T00:57:58;5.10;99.90
28520;DHT22;15732;48.534;20.382;2023-04-08T01:00:28;5.10;99.90
28520;DHT22;15732;48.534;20.382;2023-04-08T01:03:15;5.10;99.90
28520;DHT22;15732;48.534;20.382;2023-04-08T01:08:45;5.10;99.90
28520;DHT22;15732;48.534;20.382;2023-04-08T01:11:14;5.00;99.90
28520;DHT22;15732;48.534;20.382;2023-04-08T01:13:43;5.00;99.90
28520;DHT22;15732;48.534;20.382;2023-04-08T01:16:14;5.00;99.90
28520;DHT22;15732;48.534;20.382;2023-04-08T01:18:43;4.90;99.90
28520;DHT22;15732;48.534;20.382;2023-04-08T01:21:12;4.90;99.90
28520;DHT22;15732;48.534;20.382;2023-04-08T01:24:12;4.80;99.90
28520;DHT22;15732;48.534;20.382;2023-04-08T01:26:46;4.70;99.90
28520;DHT22;15732;48.534;20.382;2023-04-08T01:29:13;4.70;99.90
28520;DHT22;15732;48.534;20.382;2023-04-08T01:31:46;4.60;99.90
28520;DHT22;15732;48.534;20.382;2023-04-08T01:34:18;4.70;99.90
28520;DHT22;15732;48.534;20.382;2023-04-08T01:36:47;4.70;99.90
28520;DHT22;15732;48.534;20.382;2023-04-08T01:39:16;4.80;99.90
28520;DHT22;15732;48.534;20.382;2023-04-08T01:41:45;4.80;99.90
28520;DHT22;15732;48.534;20.382;2023-04-08T01:44:13;4.80;99.90
28520;DHT22;15732;48.534;20.382;2023-04-08T01:46:42;4.80;99.90
28520;DHT22;15732;48.534;20.382;2023-04-08T01:49:09;4.90;99.90
28520;DHT22;15732;48.534;20.382;2023-04-08T01:51:37;4.90;99.90
28520;DHT22;15732;48.534;20.382;2023-04-08T01:54:08;4.90;99.90
28520;DHT22;15732;48.534;20.382;2023-04-08T01:56:40;4.90;99.90
28520;DHT22;15732;48.534;20.382;2023-04-08T01:59:10;4.90;99.90
28520;DHT22;15732;48.534;20.382;2023-04-08T02:01:39;4.90;99.90
28520;DHT22;15732;48.534;20.382;2023-04-08T02:04:07;4.90;99.90
28520;DHT22;15732;48.534;20.382;2023-04-08T02:06:35;4.90;99.90
28520;DHT22;15732;48.534;20.382;2023-04-08T02:09:03;5.00;99.90
28520;DHT22;15732;48.534;20.382;2023-04-08T02:11:34;5.00;99.90
28520;DHT22;15732;48.534;20.382;2023-04-08T02:14:05;5.00;99.90
28520;DHT22;15732;48.534;20.382;2023-04-08T02:17:08;5.00;99.90
28520;DHT22;15732;48.534;20.382;2023-04-08T02:19:49;5.00;99.90
28520;DHT22;15732;48.534;20.382;2023-04-08T02:22:56;5.00;99.90
28520;DHT22;15732;48.534;20.382;2023-04-08T02:25:25;4.90;99.90
28520;DHT22;15732;48.534;20.382;2023-04-08T02:27:55;4.90;99.90
28520;DHT22;15732;48.534;20.382;2023-04-08T02:30:24;4.90;99.90
28520;DHT22;15732;48.534;20.382;2023-04-08T02:32:54;4.90;99.90
28520;DHT22;15732;48.534;20.382;2023-04-08T02:35:22;4.90;99.90
28520;DHT22;15732;48.534;20.382;2023-04-08T02:37:50;5.00;99.90
28520;DHT22;15732;48.534;20.382;2023-04-08T02:42:49;5.00;99.90
28520;DHT22;15732;48.534;20.382;2023-04-08T02:45:17;5.00;99.90
28520;DHT22;15732;48.534;20.382;2023-04-08T02:47:44;5.00;99.90
28520;DHT22;15732;48.534;20.382;2023-04-08T02:50:11;5.00;99.90
28520;DHT22;15732;48.534;20.382;2023-04-08T02:52:39;5.00;99.90
28520;DHT22;15732;48.534;20.382;2023-04-08T02:55:08;5.00;99.90
28520;DHT22;15732;48.534;20.382;2023-04-08T02:57:37;5.00;99.90
28520;DHT22;15732;48.534;20.382;2023-04-08T03:00:09;5.00;99.90
28520;DHT22;15732;48.534;20.382;2023-04-08T03:02:36;5.00;99.90
28520;DHT22;15732;48.534;20.382;2023-04-08T03:05:04;5.00;99.90
28520;DHT22;15732;48.534;20.382;2023-04-08T03:07:33;5.00;99.90
28520;DHT22;15732;48.534;20.382;2023-04-08T03:10:00;5.00;99.90
28520;DHT22;15732;48.534;20.382;2023-04-08T03:12:27;5.00;99.90
28520;DHT22;15732;48.534;20.382;2023-04-08T03:14:54;5.00;99.90
28520;DHT22;15732;48.534;20.382;2023-04-08T03:17:21;5.00;99.90
28520;DHT22;15732;48.534;20.382;2023-04-08T03:19:49;5.00;99.90
28520;DHT22;15732;48.534;20.382;2023-04-08T03:22:20;5.10;99.90
28520;DHT22;15732;48.534;20.382;2023-04-08T03:24:52;5.00;99.90
28520;DHT22;15732;48.534;20.382;2023-04-08T03:27:24;5.10;99.90
28520;DHT22;15732;48.534;20.382;2023-04-08T03:29:51;5.00;99.90
28520;DHT22;15732;48.534;20.382;2023-04-08T03:32:19;5.00;99.90
28520;DHT22;15732;48.534;20.382;2023-04-08T03:34:46;5.00;99.90
28520;DHT22;15732;48.534;20.382;2023-04-08T03:37:17;4.90;99.90
28520;DHT22;15732;48.534;20.382;2023-04-08T03:39:44;4.90;99.90
28520;DHT22;15732;48.534;20.382;2023-04-08T03:42:15;4.90;99.90
28520;DHT22;15732;48.534;20.382;2023-04-08T03:44:43;4.90;99.90
28520;DHT22;15732;48.534;20.382;2023-04-08T03:47:11;4.90;99.90
28520;DHT22;15732;48.534;20.382;2023-04-08T03:49:38;4.90;99.90
28520;DHT22;15732;48.534;20.382;2023-04-08T03:52:06;4.90;99.90
28520;DHT22;15732;48.534;20.382;2023-04-08T03:54:37;5.00;99.90
28520;DHT22;15732;48.534;20.382;2023-04-08T03:57:04;4.90;99.90
28520;DHT22;15732;48.534;20.382;2023-04-08T03:59:31;5.00;99.90
28520;DHT22;15732;48.534;20.382;2023-04-08T04:02:03;4.90;99.90
28520;DHT22;15732;48.534;20.382;2023-04-08T04:04:30;5.00;99.90
28520;DHT22;15732;48.534;20.382;2023-04-08T04:06:58;4.90;99.90
28520;DHT22;15732;48.534;20.382;2023-04-08T04:09:29;4.90;99.90
28520;DHT22;15732;48.534;20.382;2023-04-08T04:11:56;4.90;99.90
28520;DHT22;15732;48.534;20.382;2023-04-08T04:14:27;4.90;99.90
28520;DHT22;15732;48.534;20.382;2023-04-08T04:16:54;4.90;99.90
28520;DHT22;15732;48.534;20.382;2023-04-08T04:19:21;5.00;99.90
28520;DHT22;15732;48.534;20.382;2023-04-08T04:21:49;4.90;99.90
28520;DHT22;15732;48.534;20.382;2023-04-08T04:24:20;5.00;99.90
28520;DHT22;15732;48.534;20.382;2023-04-08T04:26:48;5.00;99.90
28520;DHT22;15732;48.534;20.382;2023-04-08T04:29:15;5.00;99.90
28520;DHT22;15732;48.534;20.382;2023-04-08T04:31:42;5.00;99.90
28520;DHT22;15732;48.534;20.382;2023-04-08T04:34:10;5.00;99.90
28520;DHT22;15732;48.534;20.382;2023-04-08T04:36:37;5.00;99.90
28520;DHT22;15732;48.534;20.382;2023-04-08T04:39:05;5.00;99.90
28520;DHT22;15732;48.534;20.382;2023-04-08T04:41:36;5.00;99.90
28520;DHT22;15732;48.534;20.382;2023-04-08T04:44:06;5.00;99.90
28520;DHT22;15732;48.534;20.382;2023-04-08T04:46:33;5.00;99.90
28520;DHT22;15732;48.534;20.382;2023-04-08T04:49:00;5.00;99.90
28520;DHT22;15732;48.534;20.382;2023-04-08T04:51:30;5.10;99.90
28520;DHT22;15732;48.534;20.382;2023-04-08T04:54:02;5.10;99.90
28520;DHT22;15732;48.534;20.382;2023-04-08T04:56:29;4.90;99.90
28520;DHT22;15732;48.534;20.382;2023-04-08T04:58:57;4.90;99.90
28520;DHT22;15732;48.534;20.382;2023-04-08T05:01:24;4.70;99.90
28520;DHT22;15732;48.534;20.382;2023-04-08T05:03:57;4.50;99.90
28520;DHT22;15732;48.534;20.382;2023-04-08T05:06:28;4.40;99.90
28520;DHT22;15732;48.534;20.382;2023-04-08T05:08:55;4.40;99.90
28520;DHT22;15732;48.534;20.382;2023-04-08T05:11:23;4.30;99.90
28520;DHT22;15732;48.534;20.382;2023-04-08T05:13:50;4.30;99.90
28520;DHT22;15732;48.534;20.382;2023-04-08T05:16:18;4.30;99.90
28520;DHT22;15732;48.534;20.382;2023-04-08T05:18:45;4.30;99.90
28520;DHT22;15732;48.534;20.382;2023-04-08T05:21:12;4.30;99.90
28520;DHT22;15732;48.534;20.382;2023-04-08T05:23:39;4.30;99.90
28520;DHT22;15732;48.534;20.382;2023-04-08T05:26:07;4.30;99.90
28520;DHT22;15732;48.534;20.382;2023-04-08T05:28:34;4.30;99.90
28520;DHT22;15732;48.534;20.382;2023-04-08T05:31:02;4.40;99.90
28520;DHT22;15732;48.534;20.382;2023-04-08T05:33:33;4.40;99.90
28520;DHT22;15732;48.534;20.382;2023-04-08T05:36:00;4.40;99.90
28520;DHT22;15732;48.534;20.382;2023-04-08T05:38:28;4.50;99.90
28520;DHT22;15732;48.534;20.382;2023-04-08T05:40:59;4.50;99.90
28520;DHT22;15732;48.534;20.382;2023-04-08T05:43:26;4.60;99.90
28520;DHT22;15732;48.534;20.382;2023-04-08T05:45:54;4.60;99.90
28520;DHT22;15732;48.534;20.382;2023-04-08T05:48:21;4.60;99.90
28520;DHT22;15732;48.534;20.382;2023-04-08T05:50:49;4.60;99.90
28520;DHT22;15732;48.534;20.382;2023-04-08T05:53:16;4.70;99.90
28520;DHT22;15732;48.534;20.382;2023-04-08T05:55:44;4.70;99.90
28520;DHT22;15732;48.534;20.382;2023-04-08T05:58:11;4.70;99.90
28520;DHT22;15732;48.534;20.382;2023-04-08T06:00:42;4.70;99.90
28520;DHT22;15732;48.534;20.382;2023-04-08T06:03:09;4.80;99.90
28520;DHT22;15732;48.534;20.382;2023-04-08T06:05:37;4.80;99.90
28520;DHT22;15732;48.534;20.382;2023-04-08T06:08:05;4.80;99.90
28520;DHT22;15732;48.534;20.382;2023-04-08T06:10:32;4.70;99.90
28520;DHT22;15732;48.534;20.382;2023-04-08T06:13:00;4.70;99.90
28520;DHT22;15732;48.534;20.382;2023-04-08T06:15:27;4.80;99.90
28520;DHT22;15732;48.534;20.382;2023-04-08T06:17:54;4.80;99.90
28520;DHT22;15732;48.534;20.382;2023-04-08T06:20:22;4.80;99.90
28520;DHT22;15732;48.534;20.382;2023-04-08T06:22:50;4.80;99.90
28520;DHT22;15732;48.534;20.382;2023-04-08T06:25:17;4.80;99.90
28520;DHT22;15732;48.534;20.382;2023-04-08T06:27:45;4.90;99.90
28520;DHT22;15732;48.534;20.382;2023-04-08T06:30:16;4.90;99.90
28520;DHT22;15732;48.534;20.382;2023-04-08T06:32:43;4.90;99.90
28520;DHT22;15732;48.534;20.382;2023-04-08T06:35:17;5.00;99.90
28520;DHT22;15732;48.534;20.382;2023-04-08T06:37:45;5.00;99.90
28520;DHT22;15732;48.534;20.382;2023-04-08T06:40:12;5.00;99.90
28520;DHT22;15732;48.534;20.382;2023-04-08T06:42:40;5.10;99.90
28520;DHT22;15732;48.534;20.382;2023-04-08T06:45:13;5.10;99.90
28520;DHT22;15732;48.534;20.382;2023-04-08T06:47:40;5.10;99.90
28520;DHT22;15732;48.534;20.382;2023-04-08T06:50:07;5.10;99.90
28520;DHT22;15732;48.534;20.382;2023-04-08T06:52:35;5.00;99.90
28520;DHT22;15732;48.534;20.382;2023-04-08T06:55:02;5.10;99.90
28520;DHT22;15732;48.534;20.382;2023-04-08T06:57:30;5.20;99.90
28520;DHT22;15732;48.534;20.382;2023-04-08T06:59:58;5.20;99.90
28520;DHT22;15732;48.534;20.382;2023-04-08T07:02:26;5.20;99.90
28520;DHT22;15732;48.534;20.382;2023-04-08T07:04:53;5.30;99.90
28520;DHT22;15732;48.534;20.382;2023-04-08T07:07:21;5.40;99.90
28520;DHT22;15732;48.534;20.382;2023-04-08T07:09:50;5.40;99.90
28520;DHT22;15732;48.534;20.382;2023-04-08T07:12:17;5.40;99.90
28520;DHT22;15732;48.534;20.382;2023-04-08T07:14:49;5.50;99.90
28520;DHT22;15732;48.534;20.382;2023-04-08T07:17:16;5.60;99.90
28520;DHT22;15732;48.534;20.382;2023-04-08T07:19:44;5.70;99.90
28520;DHT22;15732;48.534;20.382;2023-04-08T07:22:11;5.80;99.90
28520;DHT22;15732;48.534;20.382;2023-04-08T07:24:43;5.80;99.90
28520;DHT22;15732;48.534;20.382;2023-04-08T07:27:17;5.90;99.90
28520;DHT22;15732;48.534;20.382;2023-04-08T07:29:52;6.00;99.90
28520;DHT22;15732;48.534;20.382;2023-04-08T07:32:19;6.00;99.90
28520;DHT22;15732;48.534;20.382;2023-04-08T07:34:47;6.10;99.90
28520;DHT22;15732;48.534;20.382;2023-04-08T07:37:15;6.30;99.90
28520;DHT22;15732;48.534;20.382;2023-04-08T07:39:43;6.50;99.90
28520;DHT22;15732;48.534;20.382;2023-04-08T07:42:10;6.70;99.90
28520;DHT22;15732;48.534;20.382;2023-04-08T07:44:37;6.70;99.90
28520;DHT22;15732;48.534;20.382;2023-04-08T07:47:05;6.90;99.90
28520;DHT22;15732;48.534;20.382;2023-04-08T07:49:32;7.00;99.90
28520;DHT22;15732;48.534;20.382;2023-04-08T07:52:24;7.20;99.90
28520;DHT22;15732;48.534;20.382;2023-04-08T07:54:52;7.30;99.90
28520;DHT22;15732;48.534;20.382;2023-04-08T07:57:19;7.40;99.90
28520;DHT22;15732;48.534;20.382;2023-04-08T07:59:47;7.40;99.90
28520;DHT22;15732;48.534;20.382;2023-04-08T08:02:14;7.40;99.90
28520;DHT22;15732;48.534;20.382;2023-04-08T08:04:42;7.40;99.90
28520;DHT22;15732;48.534;20.382;2023-04-08T08:07:13;7.40;99.90
28520;DHT22;15732;48.534;20.382;2023-04-08T08:09:40;7.40;99.90
28520;DHT22;15732;48.534;20.382;2023-04-08T08:12:08;7.40;99.90
28520;DHT22;15732;48.534;20.382;2023-04-08T08:14:35;7.40;99.90
28520;DHT22;15732;48.534;20.382;2023-04-08T08:17:03;7.30;99.90
28520;DHT22;15732;48.534;20.382;2023-04-08T08:19:34;7.20;99.90
28520;DHT22;15732;48.534;20.382;2023-04-08T08:22:02;7.20;99.90
28520;DHT22;15732;48.534;20.382;2023-04-08T08:24:29;7.20;99.90
28520;DHT22;15732;48.534;20.382;2023-04-08T08:27:00;7.20;99.90
28520;DHT22;15732;48.534;20.382;2023-04-08T08:29:30;7.10;99.90
28520;DHT22;15732;48.534;20.382;2023-04-08T08:31:57;7.00;99.90
28520;DHT22;15732;48.534;20.382;2023-04-08T08:34:24;7.00;99.90
28520;DHT22;15732;48.534;20.382;2023-04-08T08:36:52;6.90;99.90
28520;DHT22;15732;48.534;20.382;2023-04-08T08:39:24;6.90;99.90
28520;DHT22;15732;48.534;20.382;2023-04-08T08:41:51;6.80;99.90
28520;DHT22;15732;48.534;20.382;2023-04-08T08:44:19;6.80;99.90
28520;DHT22;15732;48.534;20.382;2023-04-08T08:46:46;6.80;99.90
28520;DHT22;15732;48.534;20.382;2023-04-08T08:49:17;6.80;99.90
28520;DHT22;15732;48.534;20.382;2023-04-08T08:51:49;6.80;99.90
28520;DHT22;15732;48.534;20.382;2023-04-08T08:54:18;6.90;99.90
28520;DHT22;15732;48.534;20.382;2023-04-08T08:56:49;6.90;99.90
28520;DHT22;15732;48.534;20.382;2023-04-08T08:59:21;6.90;99.90
28520;DHT22;15732;48.534;20.382;2023-04-08T09:01:49;6.90;99.90
28520;DHT22;15732;48.534;20.382;2023-04-08T09:04:20;7.00;99.90
28520;DHT22;15732;48.534;20.382;2023-04-08T09:07:08;7.00;99.90
28520;DHT22;15732;48.534;20.382;2023-04-08T09:10:08;7.00;99.90
28520;DHT22;15732;48.534;20.382;2023-04-08T09:12:53;7.00;99.90
28520;DHT22;15732;48.534;20.382;2023-04-08T09:15:21;7.00;99.90
28520;DHT22;15732;48.534;20.382;2023-04-08T09:17:48;7.00;99.90
28520;DHT22;15732;48.534;20.382;2023-04-08T09:20:20;6.90;99.90
28520;DHT22;15732;48.534;20.382;2023-04-08T09:22:56;6.90;99.90
28520;DHT22;15732;48.534;20.382;2023-04-08T09:25:31;6.90;99.90
28520;DHT22;15732;48.534;20.382;2023-04-08T09:27:59;6.90;99.90
28520;DHT22;15732;48.534;20.382;2023-04-08T09:30:28;7.00;99.90
28520;DHT22;15732;48.534;20.382;2023-04-08T09:32:58;6.90;99.90
28520;DHT22;15732;48.534;20.382;2023-04-08T09:35:27;7.00;99.90
28520;DHT22;15732;48.534;20.382;2023-04-08T09:37:54;7.00;99.90
28520;DHT22;15732;48.534;20.382;2023-04-08T09:40:27;7.10;99.90
28520;DHT22;15732;48.534;20.382;2023-04-08T09:42:54;7.10;99.90
28520;DHT22;15732;48.534;20.382;2023-04-08T09:45:22;7.10;99.90
28520;DHT22;15732;48.534;20.382;2023-04-08T09:48:03;7.20;99.90
28520;DHT22;15732;48.534;20.382;2023-04-08T09:50:41;7.20;99.90
28520;DHT22;15732;48.534;20.382;2023-04-08T09:53:19;7.20;99.90
28520;DHT22;15732;48.534;20.382;2023-04-08T09:55:52;7.20;99.90
28520;DHT22;15732;48.534;20.382;2023-04-08T09:58:38;7.20;99.90
28520;DHT22;15732;48.534;20.382;2023-04-08T10:01:14;7.20;99.90
28520;DHT22;15732;48.534;20.382;2023-04-08T10:03:51;7.30;99.90
28520;DHT22;15732;48.534;20.382;2023-04-08T10:06:27;7.30;99.90
28520;DHT22;15732;48.534;20.382;2023-04-08T10:08:55;7.30;99.90
28520;DHT22;15732;48.534;20.382;2023-04-08T10:11:22;7.30;99.90
28520;DHT22;15732;48.534;20.382;2023-04-08T10:13:50;7.30;99.90
28520;DHT22;15732;48.534;20.382;2023-04-08T10:16:23;7.30;99.90
28520;DHT22;15732;48.534;20.382;2023-04-08T10:18:53;7.30;99.90
28520;DHT22;15732;48.534;20.382;2023-04-08T10:21:40;7.30;99.90
28520;DHT22;15732;48.534;20.382;2023-04-08T10:24:16;7.30;99.90
28520;DHT22;15732;48.534;20.382;2023-04-08T10:26:49;7.30;99.90
28520;DHT22;15732;48.534;20.382;2023-04-08T10:31:47;7.30;99.90
28520;DHT22;15732;48.534;20.382;2023-04-08T10:34:22;7.20;99.90
28520;DHT22;15732;48.534;20.382;2023-04-08T10:36:52;7.20;99.90
28520;DHT22;15732;48.534;20.382;2023-04-08T10:39:21;7.20;99.90
28520;DHT22;15732;48.534;20.382;2023-04-08T10:41:50;7.20;99.90
28520;DHT22;15732;48.534;20.382;2023-04-08T10:44:21;7.20;99.90
28520;DHT22;15732;48.534;20.382;2023-04-08T10:46:50;7.20;99.90
28520;DHT22;15732;48.534;20.382;2023-04-08T10:49:21;7.30;99.90
28520;DHT22;15732;48.534;20.382;2023-04-08T10:51:49;7.30;99.90
28520;DHT22;15732;48.534;20.382;2023-04-08T10:54:17;7.40;99.90
28520;DHT22;15732;48.534;20.382;2023-04-08T10:56:51;7.40;99.90
28520;DHT22;15732;48.534;20.382;2023-04-08T10:59:29;7.40;99.90
28520;DHT22;15732;48.534;20.382;2023-04-08T11:01:56;7.40;99.90
28520;DHT22;15732;48.534;20.382;2023-04-08T11:04:28;7.40;99.90
